Hlavní strana
METAR-TAF:

METAR-TAF

Letiště :

Letiště Madeira

Funchal, Madeira, Portugalsko

zeměpisná šířka: 32-41-52N, zeměpisná délka: 016-46-28W, výška: 59 m

Aktuální stav počasí

Zpráva byla vytvořena před 22 minutami, v 12:00 UTC
Severoseverovýchodní vítr 18 kt s nárazy do 28 kt, proměnlivý mezi severním a východoseverovýchodním
Teplota 25°C
Vlhkost vzduchu 57%
Tlak 1022 hPa
Viditelnost 10 km a více
Skoro jasno ve výšce 1600 ft

METAR: LPMA 231200Z 03018G28KT 350V060 9999 FEW016 25/16 Q1022

Čas: 13:22 (12:22 UTC)

Předpověď počasí

Zpráva byla vytvořena před 1 hodinou a 22 minutami, v 11:00 UTC
Předpověď platná od 23 v 12 UTC do 24 v 12 UTC
Severoseverovýchodní vítr 17 kt
Viditelnost 10 km a více
Polojasno ve výšce 1600 ft
Dočasný
od 23 v 12 UTC do 24 v 12 UTC
Severoseverovýchodní vítr 20 kt s nárazy do 32 kt

TAF: LPMA 231100Z 2312/2412 03017KT 9999 SCT016 TEMPO 2312/2412 03020G32KT

Stav a předpovědi počasí z více než 4 000 letišť (zprávy METAR a TAF).

Červené a žluté tečky na mapě představují dostupné meteorologické stanice.

Když kurzor umístíte na tečku, zobrazí se název stanice.

Pak kliknutím zobrazíte stav a předpověď počasí.

Chcete-li změnit mapu, kliknutím na zelené tlačítko se znaménkem +mapu přiblížíte, kliknutím na zelené tlačítko se znaménkem – mapu oddálíte a kliknutím na zelené šipky přejdete na sousední mapy.


METAR-TAF: